createdAt,value
2019-02-02T00:12:44.778Z,18.43
2019-02-02T00:18:08.088Z,18.13
2019-02-02T00:23:12.469Z,18.50
2019-02-02T00:34:25.070Z,19.90
2019-02-02T00:39:29.361Z,20.80
2019-02-02T00:44:45.191Z,18.00
2019-02-02T00:54:59.273Z,19.27
2019-02-02T01:00:22.591Z,19.77
2019-02-02T01:05:27.085Z,19.30
2019-02-02T01:11:11.608Z,19.83
2019-02-02T01:16:15.910Z,18.57
2019-02-02T01:21:20.142Z,19.33
2019-02-02T01:26:43.445Z,18.97
2019-02-02T01:32:06.995Z,19.40
2019-02-02T01:37:30.303Z,20.07
2019-02-02T01:42:34.584Z,18.67
2019-02-02T01:47:58.758Z,18.70
2019-02-02T01:53:03.012Z,16.63
2019-02-02T02:08:46.412Z,16.43
2019-02-02T02:13:50.646Z,16.73
2019-02-02T02:29:35.170Z,18.03
2019-02-02T02:34:39.435Z,18.27
2019-02-02T02:39:43.678Z,18.67
2019-02-02T02:45:07.329Z,18.20
2019-02-02T03:00:54.768Z,17.20
2019-02-02T03:05:59.009Z,17.73
2019-02-02T03:11:42.593Z,18.13
2019-02-02T03:27:06.419Z,18.93
2019-02-02T03:32:10.642Z,19.37
2019-02-02T03:37:33.944Z,19.20
2019-02-02T03:43:17.528Z,19.80
2019-02-02T03:48:21.771Z,18.50
2019-02-02T03:53:41.018Z,18.53
2019-02-02T03:58:44.085Z,19.50
2019-02-02T04:04:27.774Z,18.57
2019-02-02T04:09:51.074Z,19.00
2019-02-02T04:14:55.305Z,20.17
2019-02-02T04:30:58.674Z,20.03
2019-02-02T04:36:02.999Z,19.57
2019-02-02T04:51:46.558Z,19.87
2019-02-02T04:56:50.838Z,18.87
2019-02-02T05:01:55.175Z,20.60
2019-02-02T05:06:59.404Z,21.50
2019-02-02T05:17:32.589Z,20.67
2019-02-02T05:22:36.815Z,20.60
2019-02-02T05:27:41.084Z,21.37
2019-02-02T05:32:45.431Z,21.97
2019-02-02T05:53:18.598Z,21.57
2019-02-02T06:08:42.566Z,22.03
2019-02-02T06:13:46.803Z,21.53
2019-02-02T06:19:10.111Z,23.43
2019-02-02T06:29:24.521Z,24.03
2019-02-02T06:34:47.818Z,22.20
2019-02-02T06:39:52.053Z,22.83
2019-02-02T06:44:56.347Z,23.27
2019-02-02T07:00:41.019Z,24.57
2019-02-02T07:05:45.321Z,23.13
2019-02-02T07:15:59.329Z,25.43
2019-02-02T07:26:32.200Z,25.47
2019-02-02T07:31:36.429Z,25.03
2019-02-02T07:47:00.245Z,27.10
2019-02-02T07:52:23.566Z,26.73
2019-02-02T08:02:38.121Z,27.07
2019-02-02T08:07:42.357Z,27.60
2019-02-02T08:33:45.412Z,31.87
2019-02-02T08:38:50.793Z,33.23
2019-02-02T08:43:55.093Z,29.83
2019-02-02T08:48:59.345Z,27.13
2019-02-02T08:59:15.394Z,25.77
2019-02-02T09:04:31.773Z,25.17
2019-02-02T09:09:35.989Z,25.10
2019-02-02T09:14:40.222Z,26.07
2019-02-02T09:25:53.368Z,26.47
2019-02-02T09:30:57.638Z,26.13
2019-02-02T09:36:01.872Z,25.07
2019-02-02T09:41:25.182Z,25.60
2019-02-02T09:46:29.424Z,25.63
2019-02-02T09:51:52.723Z,24.37
2019-02-02T10:02:27.161Z,27.27
2019-02-02T10:07:45.580Z,26.17
2019-02-02T10:12:49.859Z,23.77
2019-02-02T10:17:54.084Z,23.97
2019-02-02T10:23:17.467Z,26.53
2019-02-02T10:28:21.711Z,25.07
2019-02-02T10:33:45.006Z,25.00
2019-02-02T10:49:28.816Z,27.37
2019-02-02T11:04:53.558Z,29.90
2019-02-02T11:10:10.333Z,27.27
2019-02-02T11:15:54.723Z,26.57
2019-02-02T11:20:58.987Z,27.03
2019-02-02T11:31:32.158Z,25.47
2019-02-02T11:46:56.982Z,27.10
2019-02-02T11:52:01.304Z,28.83
2019-02-02T11:57:05.717Z,28.60
2019-02-02T12:02:14.629Z,28.83
2019-02-02T12:12:37.374Z,29.17
2019-02-02T12:22:51.407Z,29.27
2019-02-02T12:33:25.997Z,30.83
2019-02-02T12:38:49.775Z,32.03
2019-02-02T12:49:04.103Z,29.93
2019-02-02T12:54:08.334Z,35.57
2019-02-02T13:04:21.901Z,31.00
2019-02-02T13:14:47.282Z,34.13
2019-02-02T13:25:01.135Z,33.47
2019-02-02T13:30:46.134Z,43.90
2019-02-02T13:36:30.171Z,34.17
2019-02-02T13:41:34.411Z,28.37
2019-02-02T13:46:58.023Z,28.57
2019-02-02T13:52:02.252Z,32.17
2019-02-02T14:02:35.899Z,31.53
2019-02-02T14:07:40.138Z,30.73
2019-02-02T14:12:44.709Z,30.80
2019-02-02T14:18:01.066Z,30.17
2019-02-02T14:23:44.805Z,28.10
2019-02-02T14:28:49.384Z,27.40
2019-02-02T14:39:22.724Z,29.97
2019-02-02T14:56:05.551Z,29.33
2019-02-02T15:01:28.847Z,30.53
2019-02-02T15:06:33.123Z,29.53
2019-02-02T15:17:06.489Z,29.50
2019-02-02T15:22:22.848Z,30.10
2019-02-02T15:27:27.146Z,30.53
2019-02-02T15:32:31.441Z,27.93
2019-02-02T15:37:36.110Z,30.30
2019-02-02T15:42:59.490Z,31.80
2019-02-02T15:48:23.144Z,29.10
2019-02-02T15:53:27.377Z,27.93
2019-02-02T15:58:52.345Z,27.60
2019-02-02T16:04:36.450Z,28.93
2019-02-02T16:09:40.718Z,30.00
2019-02-02T16:15:04.450Z,28.43
2019-02-02T16:20:49.934Z,27.63
2019-02-02T16:25:54.253Z,26.00
2019-02-02T16:31:17.585Z,26.73
2019-02-02T16:36:40.891Z,25.70
2019-02-02T16:42:04.285Z,23.43
2019-02-02T16:47:27.630Z,25.57
2019-02-02T16:58:41.457Z,22.63
2019-02-02T17:14:44.313Z,26.07
2019-02-02T17:20:07.672Z,24.63
2019-02-02T17:25:52.156Z,25.50
2019-02-02T17:31:15.453Z,25.73
2019-02-02T17:42:07.839Z,23.57
2019-02-02T17:47:12.067Z,24.10
2019-02-02T18:03:07.037Z,17.07
2019-02-02T18:08:11.299Z,16.60
2019-02-02T18:13:15.539Z,15.63
2019-02-02T18:24:08.344Z,16.03
2019-02-02T18:29:12.581Z,14.63
2019-02-02T18:34:16.863Z,13.13
2019-02-02T18:39:21.105Z,14.30
2019-02-02T18:44:44.410Z,14.33
2019-02-02T18:56:24.028Z,14.07
2019-02-02T19:06:59.350Z,14.63
2019-02-02T19:12:03.923Z,12.57
2019-02-02T19:17:10.538Z,13.23
2019-02-02T19:22:14.787Z,14.53
2019-02-02T19:32:47.411Z,13.50
2019-02-02T19:38:10.895Z,14.23
2019-02-02T19:48:25.152Z,14.83
2019-02-02T19:53:31.833Z,15.43
2019-02-02T19:58:35.458Z,12.67
2019-02-02T20:03:39.745Z,14.40
2019-02-02T20:08:43.983Z,14.83
2019-02-02T20:18:58.367Z,15.90
2019-02-02T20:29:12.470Z,19.07
2019-02-02T20:34:16.706Z,18.63
2019-02-02T20:44:31.027Z,24.60
2019-02-02T20:49:54.423Z,22.57
2019-02-02T21:00:50.346Z,22.63
2019-02-02T21:06:14.189Z,25.00
2019-02-02T21:16:47.896Z,22.90
2019-02-02T21:27:02.097Z,22.10
2019-02-02T21:32:06.706Z,21.43
2019-02-02T21:37:11.250Z,20.93
2019-02-02T21:47:44.916Z,16.53
2019-02-02T21:53:28.581Z,18.70
2019-02-02T21:58:52.150Z,17.50
2019-02-02T22:03:56.818Z,18.27
2019-02-02T22:09:01.122Z,19.10
2019-02-02T22:14:44.784Z,19.60
2019-02-02T22:25:18.739Z,19.57
2019-02-02T22:31:03.437Z,21.07
2019-02-02T22:36:07.715Z,19.33
2019-02-02T22:46:40.996Z,23.40
2019-02-02T22:51:45.295Z,23.50
2019-02-02T22:57:08.597Z,24.23
2019-02-02T23:08:21.291Z,22.93
2019-02-02T23:14:03.767Z,24.23
2019-02-02T23:19:09.730Z,23.97
2019-02-02T23:24:33.039Z,24.00
2019-02-02T23:29:56.385Z,22.87
2019-02-02T23:45:38.918Z,22.73
2019-02-02T23:50:43.163Z,21.53
2019-02-02T23:55:47.414Z,21.30
